Time;durP1;ratioP1;P1;durP2;ratioP2;P2;SDS_P1;SDS_P2;PMS_P1;PMS_P2;Temp;Humidity;BMP_temperature;BMP_pressure;BME280_temperature;BME280_humidity;BME280_pressure;Samples;Min_cycle;Max_cycle;Signal;HPM_P1;HPM_P2
2020/12/11 00:00:16;;;;;;;24.05;17.52;;;;;;;9.26;72.02;99646.97;4954147;28;98824;-69
2020/12/11 00:02:42;;;;;;;22.42;16.55;;;;;;;9.29;71.46;99656.38;4953755;28;96618;-69
2020/12/11 00:05:08;;;;;;;24.33;17.73;;;;;;;9.30;71.77;99652.84;4954467;28;96643;-67
2020/12/11 00:07:36;;;;;;;23.98;16.00;;;;;;;9.34;70.91;99644.81;4954449;28;98719;-68
2020/12/11 00:10:06;;;;;;;26.35;18.23;;;;;;;9.36;70.81;99642.13;4954059;28;98495;-68
2020/12/11 00:12:33;;;;;;;20.50;15.25;;;;;;;9.36;71.18;99642.13;4954608;28;96843;-68
2020/12/11 00:15:00;;;;;;;24.10;17.13;;;;;;;9.32;71.07;99643.19;4954797;28;96643;-68
2020/12/11 00:17:26;;;;;;;21.50;16.02;;;;;;;9.31;71.37;99644.97;4936498;28;98790;-68
2020/12/11 00:19:53;;;;;;;23.88;16.08;;;;;;;9.32;71.60;99646.66;4954937;28;98538;-68
2020/12/11 00:22:20;;;;;;;23.95;17.45;;;;;;;9.31;71.76;99649.31;4948595;28;96550;-68
2020/12/11 00:24:47;;;;;;;22.88;18.25;;;;;;;9.27;72.05;99648.66;4937435;28;96671;-68
2020/12/11 00:27:14;;;;;;;21.35;16.50;;;;;;;9.29;71.54;99659.81;4953438;28;98718;-67
2020/12/11 00:29:40;;;;;;;24.50;18.75;;;;;;;9.24;71.87;99651.44;4954048;28;98103;-68
2020/12/11 00:32:06;;;;;;;23.17;17.88;;;;;;;9.25;72.17;99655.69;4953908;28;96583;-67
2020/12/11 00:34:33;;;;;;;23.10;17.33;;;;;;;9.25;71.36;99647.91;4936537;28;96561;-68
2020/12/11 00:37:00;;;;;;;23.10;18.40;;;;;;;9.26;71.37;99639.16;4953875;28;98480;-69
2020/12/11 00:39:26;;;;;;;29.00;19.77;;;;;;;9.24;71.91;99635.81;4953070;28;98727;-69
2020/12/11 00:41:54;;;;;;;21.50;16.90;;;;;;;9.14;72.38;99639.84;4954251;28;96626;-69
2020/12/11 00:44:21;;;;;;;26.35;17.05;;;;;;;9.17;72.30;99643.13;4936288;28;96840;-69
2020/12/11 00:46:48;;;;;;;21.98;17.90;;;;;;;9.10;73.19;99651.31;4948203;28;98475;-68
2020/12/11 00:49:15;;;;;;;25.40;16.88;;;;;;;9.09;73.04;99649.66;4949978;28;99901;-67
2020/12/11 00:51:42;;;;;;;21.05;15.93;;;;;;;9.11;72.75;99658.22;4943056;28;96529;-68
2020/12/11 00:54:09;;;;;;;19.75;15.75;;;;;;;9.20;72.84;99657.72;4945125;28;98801;-68
2020/12/11 00:56:36;;;;;;;21.50;17.52;;;;;;;9.18;72.91;99659.56;4947022;28;98665;-68
2020/12/11 00:59:02;;;;;;;24.05;17.95;;;;;;;9.24;72.19;99655.78;4947417;28;98514;-68
2020/12/11 01:01:28;;;;;;;26.65;18.23;;;;;;;9.27;72.07;99653.88;4947529;28;97476;-68
2020/12/11 01:03:55;;;;;;;24.83;18.38;;;;;;;9.21;71.67;99653.34;4947295;28;96827;-68
2020/12/11 01:06:21;;;;;;;23.05;17.60;;;;;;;9.07;71.23;99665.34;4947290;28;100535;-68
2020/12/11 01:08:48;;;;;;;23.02;16.45;;;;;;;8.91;72.35;99660.09;4947547;28;98969;-68
2020/12/11 01:11:14;;;;;;;20.80;15.73;;;;;;;9.11;71.48;99666.03;4945319;28;96904;-68
2020/12/11 01:13:40;;;;;;;21.27;16.35;;;;;;;9.14;71.05;99671.88;4947038;28;97623;-68
2020/12/11 01:16:07;;;;;;;23.42;16.38;;;;;;;9.19;70.79;99666.44;4945203;28;97713;-68
2020/12/11 01:18:33;;;;;;;23.42;15.32;;;;;;;9.08;71.11;99669.59;4946283;28;98408;-68
2020/12/11 01:20:59;;;;;;;19.38;15.50;;;;;;;9.10;70.98;99666.91;4946988;28;97014;-68
2020/12/11 01:23:26;;;;;;;20.17;15.05;;;;;;;9.07;70.51;99662.72;4946382;28;97314;-68
2020/12/11 01:25:52;;;;;;;20.58;15.00;;;;;;;9.09;70.70;99663.47;4947265;28;98305;-68
2020/12/11 01:28:19;;;;;;;18.83;14.43;;;;;;;9.11;70.84;99666.03;4947566;28;99590;-68
2020/12/11 01:30:45;;;;;;;17.48;13.18;;;;;;;9.03;70.79;99666.41;4947794;28;97428;-67
2020/12/11 01:33:12;;;;;;;18.90;13.75;;;;;;;9.08;70.89;99668.78;4930060;28;97126;-68
2020/12/11 01:35:38;;;;;;;17.90;14.75;;;;;;;9.04;70.85;99675.03;4946412;28;98482;-68
2020/12/11 01:38:05;;;;;;;21.23;13.77;;;;;;;9.04;71.04;99667.25;4946553;28;100743;-68
2020/12/11 01:40:35;;;;;;;18.88;13.80;;;;;;;9.00;70.84;99661.38;4945447;28;97300;-68
2020/12/11 01:43:01;;;;;;;20.30;12.68;;;;;;;9.15;70.13;99670.13;4945418;28;97379;-68
2020/12/11 01:45:28;;;;;;;22.63;14.32;;;;;;;9.12;70.37;99665.09;4945622;28;98941;-68
2020/12/11 01:47:54;;;;;;;21.35;14.27;;;;;;;8.96;70.79;99659.03;4950071;28;98688;-68
2020/12/11 01:50:20;;;;;;;17.05;14.02;;;;;;;8.99;70.74;99657.09;4950026;28;98112;-68
2020/12/11 01:52:47;;;;;;;18.27;14.15;;;;;;;9.05;70.29;99650.72;4949528;28;98402;-68
2020/12/11 01:55:14;;;;;;;24.33;16.73;;;;;;;9.07;70.32;99649.72;4949195;28;98584;-68
2020/12/11 01:57:59;;;;;;;22.88;14.43;;;;;;;9.00;70.93;99650.13;4949842;28;98678;-68
2020/12/11 02:00:26;;;;;;;24.55;16.45;;;;;;;9.05;70.73;99650.72;4949313;28;97464;-66
2020/12/11 02:02:59;;;;;;;24.23;17.25;;;;;;;9.05;70.58;99640.31;4950362;28;98573;-67
2020/12/11 02:05:26;;;;;;;21.75;15.77;;;;;;;9.04;70.62;99636.88;4948860;28;101617;-68
2020/12/11 02:07:52;;;;;;;21.58;15.05;;;;;;;9.12;69.96;99644.28;4949449;28;98443;-68
2020/12/11 02:10:19;;;;;;;23.60;18.25;;;;;;;8.93;71.03;99637.44;4932417;28;96844;-68
2020/12/11 02:12:45;;;;;;;20.52;16.35;;;;;;;8.95;71.39;99631.31;4950104;28;97527;-67
2020/12/11 02:15:11;;;;;;;20.25;16.67;;;;;;;9.03;71.29;99634.38;4949277;28;98624;-67
2020/12/11 02:17:38;;;;;;;23.38;17.27;;;;;;;8.93;71.31;99640.06;4949226;28;98591;-67
2020/12/11 02:20:04;;;;;;;21.60;16.23;;;;;;;9.01;71.28;99638.81;4949900;28;96772;-68
2020/12/11 02:22:31;;;;;;;22.65;17.65;;;;;;;8.98;71.33;99646.78;4949715;28;99915;-67
2020/12/11 02:24:57;;;;;;;24.60;17.77;;;;;;;8.98;71.21;99644.19;4947735;28;98435;-67
2020/12/11 02:27:23;;;;;;;23.10;17.70;;;;;;;8.90;71.41;99642.84;4949000;28;98673;-68
2020/12/11 02:29:50;;;;;;;22.85;16.38;;;;;;;9.03;70.97;99629.19;4949185;28;98579;-68
2020/12/11 02:32:16;;;;;;;23.27;17.77;;;;;;;9.02;71.27;99628.34;4948868;28;96729;-67
2020/12/11 02:34:43;;;;;;;21.67;17.75;;;;;;;8.99;71.37;99623.28;4949468;28;98416;-67
2020/12/11 02:37:12;;;;;;;22.48;16.23;;;;;;;9.00;70.91;99619.78;4949201;28;98298;-67
2020/12/11 02:39:38;;;;;;;22.85;16.35;;;;;;;9.03;70.80;99608.38;4948171;28;96916;-68
2020/12/11 02:42:05;;;;;;;22.70;18.63;;;;;;;9.00;71.25;99609.41;4949793;28;97251;-67
2020/12/11 02:44:32;;;;;;;22.33;17.60;;;;;;;9.01;71.08;99618.03;4949711;28;98857;-67
2020/12/11 02:46:58;;;;;;;24.73;19.73;;;;;;;9.04;70.78;99623.88;4949797;28;98847;-67
2020/12/11 02:49:25;;;;;;;21.13;17.58;;;;;;;9.05;71.23;99627.31;4949071;28;98457;-67
2020/12/11 02:51:51;;;;;;;20.10;16.30;;;;;;;9.13;70.74;99625.16;4949820;28;99310;-68
2020/12/11 02:54:18;;;;;;;21.40;16.95;;;;;;;9.07;70.86;99625.50;4947786;28;98425;-68
2020/12/11 02:56:44;;;;;;;19.58;14.80;;;;;;;9.05;70.70;99627.31;4947959;28;98660;-67
2020/12/11 02:59:11;;;;;;;34.00;16.52;;;;;;;9.05;70.77;99633.34;4948045;28;96963;-67
2020/12/11 03:01:37;;;;;;;23.27;15.32;;;;;;;9.04;71.06;99628.25;4949010;28;96794;-66
2020/12/11 03:04:03;;;;;;;19.75;14.05;;;;;;;8.97;70.90;99629.50;4948082;28;98414;-67
2020/12/11 03:06:31;;;;;;;21.58;15.68;;;;;;;8.92;71.13;99633.19;4948603;28;98798;-67
2020/12/11 03:09:00;;;;;;;20.52;16.38;;;;;;;8.93;71.45;99631.41;4947276;28;97248;-67
2020/12/11 03:11:27;;;;;;;20.52;15.73;;;;;;;8.99;71.24;99638.06;4948928;28;97748;-67
2020/12/11 03:13:54;;;;;;;20.98;16.20;;;;;;;9.08;70.43;99638.41;4949134;28;98599;-67
2020/12/11 03:16:21;;;;;;;22.08;16.27;;;;;;;9.06;70.18;99635.06;4948521;28;98435;-67
2020/12/11 03:18:48;;;;;;;23.98;16.80;;;;;;;9.05;70.58;99629.91;4949606;28;97877;-67
2020/12/11 03:21:15;;;;;;;28.48;17.10;;;;;;;9.13;69.95;99631.19;4933094;28;96783;-66
2020/12/11 03:23:41;;;;;;;23.05;17.20;;;;;;;9.13;69.87;99631.19;4948617;28;102298;-67
2020/12/11 03:26:08;;;;;;;26.02;16.20;;;;;;;9.05;70.51;99622.13;4947835;28;98662;-67
2020/12/11 03:28:34;;;;;;;24.13;17.23;;;;;;;9.06;70.42;99622.06;4950315;28;98518;-67
2020/12/11 03:31:00;;;;;;;24.75;17.80;;;;;;;9.15;69.94;99623.31;4948328;28;97745;-67
2020/12/11 03:33:27;;;;;;;23.05;17.25;;;;;;;9.10;70.23;99622.72;4948033;28;97706;-67
2020/12/11 03:35:54;;;;;;;28.95;20.67;;;;;;;9.07;70.26;99622.91;4948434;28;99136;-68
2020/12/11 03:38:20;;;;;;;24.27;18.38;;;;;;;8.97;70.81;99619.94;4947800;28;96656;-65
2020/12/11 03:40:47;;;;;;;26.23;19.48;;;;;;;9.09;70.19;99618.44;4947968;28;97469;-67
2020/12/11 03:43:13;;;;;;;26.45;19.20;;;;;;;9.11;70.14;99624.41;4947589;28;98573;-67
2020/12/11 03:45:39;;;;;;;26.27;18.48;;;;;;;9.04;70.29;99620.44;4949394;28;98436;-66
2020/12/11 03:48:06;;;;;;;27.25;20.70;;;;;;;9.09;70.82;99618.44;4947409;28;96743;-67
2020/12/11 03:50:33;;;;;;;25.67;19.30;;;;;;;9.12;69.93;99620.88;4948695;28;96711;-68
2020/12/11 03:52:59;;;;;;;27.30;20.23;;;;;;;9.11;70.23;99620.06;4948009;28;99074;-67
2020/12/11 03:55:25;;;;;;;29.13;20.80;;;;;;;9.20;69.74;99616.09;4947743;28;99278;-67
2020/12/11 03:57:52;;;;;;;33.17;21.75;;;;;;;9.14;70.08;99619.03;4948762;28;96724;-67
2020/12/11 04:00:18;;;;;;;28.92;19.60;;;;;;;9.16;70.12;99606.78;4948470;28;99010;-67
2020/12/11 04:02:45;;;;;;;27.48;18.73;;;;;;;9.16;69.71;99606.78;4948081;28;98514;-68
2020/12/11 04:05:11;;;;;;;27.27;21.05;;;;;;;9.19;69.60;99611.81;4947098;28;98648;-67
2020/12/11 04:07:37;;;;;;;27.30;20.13;;;;;;;9.18;69.98;99607.56;4946398;28;97795;-66
2020/12/11 04:10:04;;;;;;;25.58;18.58;;;;;;;9.19;69.91;99599.66;4946595;28;97509;-68
2020/12/11 04:12:30;;;;;;;28.58;19.80;;;;;;;9.07;70.55;99596.91;4947318;28;98721;-67
2020/12/11 04:14:56;;;;;;;25.85;18.30;;;;;;;9.05;70.14;99585.72;4947044;28;98683;-67
2020/12/11 04:17:23;;;;;;;22.27;18.60;;;;;;;9.10;69.95;99578.50;4948114;28;98728;-67
2020/12/11 04:19:50;;;;;;;27.88;20.05;;;;;;;9.17;69.64;99585.06;4949559;28;96726;-66
2020/12/11 04:22:16;;;;;;;24.75;17.85;;;;;;;9.17;69.40;99587.69;4954632;28;97859;-73
2020/12/11 04:24:42;;;;;;;23.33;17.42;;;;;;;9.04;70.30;99576.25;4954445;28;98605;-69
2020/12/11 04:27:09;;;;;;;25.15;19.05;;;;;;;9.03;70.03;99577.19;4953343;28;96821;-67
2020/12/11 04:29:35;;;;;;;26.10;18.10;;;;;;;8.86;71.06;99572.91;4954726;28;96871;-68
2020/12/11 04:32:02;;;;;;;24.20;17.90;;;;;;;8.88;70.77;99571.03;4953778;28;98597;-68
2020/12/11 04:34:28;;;;;;;28.50;19.48;;;;;;;8.75;71.34;99581.25;4954018;28;98473;-69
2020/12/11 04:36:56;;;;;;;23.73;16.52;;;;;;;8.84;70.58;99572.13;4953931;28;96641;-68
2020/12/11 04:39:22;;;;;;;27.88;20.27;;;;;;;8.95;69.47;99579.34;4953849;28;97153;-68
2020/12/11 04:41:50;;;;;;;24.80;17.30;;;;;;;8.87;69.42;99570.22;4953537;28;98481;-68
2020/12/11 04:44:17;;;;;;;22.67;17.40;;;;;;;8.93;70.04;99567.28;4953627;28;98528;-68
2020/12/11 04:46:43;;;;;;;23.73;16.40;;;;;;;8.82;70.24;99567.00;4954416;28;96671;-68
2020/12/11 04:49:09;;;;;;;23.25;17.52;;;;;;;8.79;70.61;99577.59;4936444;28;96709;-67
2020/12/11 04:51:36;;;;;;;23.55;17.08;;;;;;;8.75;70.29;99580.44;4932777;28;98478;-68
2020/12/11 04:54:03;;;;;;;26.25;18.52;;;;;;;8.81;70.25;99583.53;4918623;28;98616;-68
2020/12/11 04:56:32;;;;;;;22.50;16.90;;;;;;;8.86;69.49;99591.94;4953053;28;96542;-68
2020/12/11 04:58:58;;;;;;;21.88;16.25;;;;;;;8.89;69.41;99583.97;4953651;28;96689;-68
2020/12/11 05:01:29;;;;;;;29.73;18.52;;;;;;;8.87;69.38;99577.16;4954155;28;98593;-68
2020/12/11 05:03:57;;;;;;;22.77;15.95;;;;;;;8.86;69.29;99576.34;4953016;28;98452;-67
2020/12/11 05:06:24;;;;;;;24.88;18.25;;;;;;;8.72;70.42;99576.22;4953906;28;97551;-67
2020/12/11 05:09:09;;;;;;;22.50;18.00;;;;;;;8.64;70.63;99575.78;4954204;28;96791;-67
2020/12/11 05:11:35;;;;;;;23.77;16.90;;;;;;;8.63;70.79;99584.53;4952669;28;98378;-68
2020/12/11 05:14:02;;;;;;;22.77;16.75;;;;;;;8.67;70.46;99586.00;4953784;28;98755;-68
2020/12/11 05:16:28;;;;;;;20.17;14.95;;;;;;;8.68;70.27;99587.69;4953257;28;97805;-68
2020/12/11 05:19:02;;;;;;;21.65;14.38;;;;;;;8.60;70.76;99589.84;4952726;28;96750;-68
2020/12/11 05:21:30;;;;;;;21.27;16.77;;;;;;;8.49;71.34;99595.63;4936714;28;98249;-67
2020/12/11 05:24:04;;;;;;;22.10;16.17;;;;;;;8.51;71.22;99590.34;4923619;28;98552;-67
2020/12/11 05:26:34;;;;;;;21.13;16.02;;;;;;;8.70;70.26;99583.25;4950630;28;97119;-67
2020/12/11 05:29:01;;;;;;;21.45;16.08;;;;;;;8.61;70.48;99586.34;4956770;28;96698;-65
2020/12/11 05:31:28;;;;;;;26.50;16.58;;;;;;;8.69;69.51;99583.34;4956671;28;98521;-63
2020/12/11 05:34:04;;;;;;;20.40;14.05;;;;;;;8.62;69.79;99577.63;4956538;28;98584;-67
2020/12/11 05:36:47;;;;;;;23.92;16.50;;;;;;;8.69;69.05;99589.38;4957006;28;98245;-67
2020/12/11 05:39:18;;;;;;;24.30;16.83;;;;;;;8.51;69.58;99585.13;4956679;28;96614;-67
2020/12/11 05:41:44;;;;;;;25.23;17.85;;;;;;;8.40;70.39;99588.28;4956717;28;99747;-67
2020/12/11 05:44:24;;;;;;;24.27;15.15;;;;;;;8.42;70.06;99583.88;4939023;28;97518;-67
2020/12/11 05:46:51;;;;;;;24.75;17.42;;;;;;;8.33;70.08;99581.72;4956557;28;96558;-67
2020/12/11 05:49:28;;;;;;;21.92;15.50;;;;;;;8.43;69.96;99580.34;4956314;28;96828;-67
2020/12/11 05:52:23;;;;;;;23.33;16.38;;;;;;;8.43;69.49;99577.75;4951105;28;98651;-67
2020/12/11 05:54:54;;;;;;;22.73;16.48;;;;;;;8.43;69.34;99579.50;4955407;28;98420;-66
2020/12/11 05:57:21;;;;;;;24.00;17.88;;;;;;;8.39;69.54;99581.41;4950333;28;97178;-67
2020/12/11 05:59:48;;;;;;;24.33;17.15;;;;;;;8.37;69.68;99581.50;4949549;28;97629;-67
2020/12/11 06:02:19;;;;;;;22.25;16.48;;;;;;;8.35;69.58;99570.31;4931222;28;98954;-67
2020/12/11 06:04:46;;;;;;;26.30;18.17;;;;;;;8.36;69.85;99571.19;4947649;28;98518;-63
2020/12/11 06:07:13;;;;;;;26.35;17.45;;;;;;;8.36;69.55;99569.44;4950610;28;97745;-65
2020/12/11 06:09:41;;;;;;;24.05;17.50;;;;;;;8.41;69.48;99574.38;4949374;28;97589;-66
2020/12/11 06:12:09;;;;;;;22.02;15.48;;;;;;;8.43;68.62;99566.53;4949412;28;98490;-68
2020/12/11 06:14:38;;;;;;;27.33;15.80;;;;;;;8.42;68.94;99570.88;4950813;28;98867;-68
2020/12/11 06:17:05;;;;;;;23.73;16.55;;;;;;;8.38;68.57;99564.16;4950046;28;97063;-68
2020/12/11 06:19:32;;;;;;;22.67;14.60;;;;;;;8.43;68.15;99564.78;4932126;28;96803;-68
2020/12/11 06:21:58;;;;;;;22.77;17.05;;;;;;;8.35;68.38;99567.72;4954908;28;98908;-68
2020/12/11 06:24:31;;;;;;;19.58;14.77;;;;;;;8.08;69.49;99563.94;4938495;28;98585;-69
2020/12/11 06:27:02;;;;;;;26.17;16.00;;;;;;;8.14;68.82;99563.63;4955986;28;96879;-68
2020/12/11 06:29:40;;;;;;;22.67;17.23;;;;;;;8.21;68.76;99565.00;4956243;28;96580;-64
2020/12/11 06:32:09;;;;;;;19.83;14.40;;;;;;;8.25;68.34;99557.88;4949048;28;98638;-68
2020/12/11 06:34:36;;;;;;;22.63;17.42;;;;;;;8.11;68.69;99550.81;4954783;28;98492;-68
2020/12/11 06:37:03;;;;;;;23.40;16.15;;;;;;;8.16;68.15;99548.81;4955526;28;96715;-70
2020/12/11 06:39:41;;;;;;;26.55;16.13;;;;;;;8.17;67.83;99549.66;4932663;28;96656;-70
2020/12/11 06:42:08;;;;;;;23.83;16.23;;;;;;;8.07;68.25;99557.06;4949789;28;98767;-71
2020/12/11 06:44:35;;;;;;;18.23;14.07;;;;;;;7.94;68.76;99558.63;4955683;28;98592;-67
2020/12/11 06:47:09;;;;;;;22.60;15.38;;;;;;;7.92;68.71;99560.44;4956318;28;96537;-67
2020/12/11 06:50:05;;;;;;;22.75;17.25;;;;;;;7.97;68.10;99574.00;4954499;28;96819;-65
2020/12/11 06:52:35;;;;;;;22.55;15.77;;;;;;;8.04;67.89;99575.38;4944424;28;98740;-64
2020/12/11 06:55:01;;;;;;;28.15;20.98;;;;;;;8.09;67.57;99573.38;4953905;28;99107;-66
2020/12/11 06:57:38;;;;;;;26.88;20.80;;;;;;;8.07;67.74;99576.06;4953629;28;96722;-68
2020/12/11 07:00:28;;;;;;;30.08;20.65;;;;;;;7.79;69.42;99581.81;4953309;28;96583;-64
2020/12/11 07:03:23;;;;;;;24.45;17.45;;;;;;;7.83;68.76;99578.16;4953531;28;98926;-67
2020/12/11 07:06:00;;;;;;;24.42;19.10;;;;;;;7.72;69.63;99585.59;4950277;28;98467;-68
2020/12/11 07:08:27;;;;;;;24.77;20.50;;;;;;;7.84;68.83;99585.00;4955393;28;96733;-67
2020/12/11 07:10:53;;;;;;;28.13;19.80;;;;;;;7.81;69.15;99579.13;4955460;28;96522;-68
2020/12/11 07:13:20;;;;;;;25.60;18.20;;;;;;;7.90;68.74;99581.28;4937604;28;98640;-67
2020/12/11 07:15:46;;;;;;;29.10;20.02;;;;;;;7.91;68.55;99579.50;4954666;28;98551;-68
2020/12/11 07:18:14;;;;;;;28.05;20.08;;;;;;;8.03;68.44;99568.50;4922192;28;96700;-67
2020/12/11 07:20:54;;;;;;;27.42;18.48;;;;;;;8.00;69.00;99569.53;4952577;28;96755;-65
2020/12/11 07:23:21;;;;;;;26.10;19.58;;;;;;;8.06;68.08;99574.41;4948049;28;98452;-65
2020/12/11 07:25:48;;;;;;;27.00;17.98;;;;;;;8.28;67.71;99574.16;4933688;28;98668;-68
2020/12/11 07:28:14;;;;;;;25.42;19.50;;;;;;;8.37;67.68;99578.06;4952639;28;96592;-67
2020/12/11 07:30:42;;;;;;;26.42;19.05;;;;;;;8.55;67.93;99577.09;4952614;28;97187;-71
2020/12/11 07:33:10;;;;;;;23.45;17.98;;;;;;;8.98;65.57;99579.19;4952949;28;98490;-67
2020/12/11 07:35:38;;;;;;;32.28;19.85;;;;;;;9.06;65.53;99575.25;4948759;28;98386;-66
2020/12/11 07:38:04;;;;;;;25.20;17.05;;;;;;;9.13;65.42;99579.19;4952526;28;97468;-67
2020/12/11 07:40:32;;;;;;;25.67;18.17;;;;;;;9.05;65.54;99576.16;4953276;28;96760;-67
2020/12/11 07:42:58;;;;;;;28.00;20.25;;;;;;;9.30;65.31;99575.66;4931811;28;98408;-67
2020/12/11 07:45:29;;;;;;;29.85;19.80;;;;;;;9.70;63.30;99576.88;4953488;28;98349;-66
2020/12/11 07:47:55;;;;;;;23.58;18.30;;;;;;;9.98;61.82;99573.53;4950948;28;97009;-67
2020/12/11 07:50:26;;;;;;;29.48;19.85;;;;;;;10.22;61.35;99575.59;4954054;28;96800;-68
2020/12/11 07:52:54;;;;;;;29.42;20.73;;;;;;;10.26;61.55;99571.94;4952612;28;98496;-68
2020/12/11 07:55:20;;;;;;;26.77;19.40;;;;;;;10.45;60.36;99571.69;4951469;28;98642;-68
2020/12/11 07:57:56;;;;;;;32.30;21.08;;;;;;;10.68;60.27;99575.50;4953981;28;96603;-68
2020/12/11 08:00:24;;;;;;;27.05;19.92;;;;;;;10.87;59.45;99570.00;4951897;28;97288;-67
2020/12/11 08:02:52;;;;;;;29.15;20.30;;;;;;;10.81;59.34;99568.56;4950387;28;98460;-68
2020/12/11 08:05:19;;;;;;;34.22;20.48;;;;;;;10.84;58.91;99567.56;4948913;28;97608;-68
2020/12/11 08:07:52;;;;;;;24.13;17.30;;;;;;;10.99;57.51;99564.00;4952928;28;96666;-66
2020/12/11 08:10:42;;;;;;;23.73;16.77;;;;;;;11.19;57.17;99562.78;4950674;28;96681;-67
2020/12/11 08:13:11;;;;;;;30.95;19.50;;;;;;;11.23;56.86;99559.00;4947473;28;98886;-68
2020/12/11 08:15:38;;;;;;;26.58;18.55;;;;;;;11.22;57.24;99557.34;4947522;28;98439;-67
2020/12/11 08:18:21;;;;;;;26.88;19.38;;;;;;;11.29;56.79;99556.00;4934988;28;97545;-68
2020/12/11 08:20:57;;;;;;;31.85;21.20;;;;;;;11.19;57.18;99562.78;4930911;28;97460;-68
2020/12/11 08:23:31;;;;;;;27.38;19.55;;;;;;;10.92;58.09;99550.53;4946643;28;98585;-66
2020/12/11 08:26:36;;;;;;;22.92;16.15;;;;;;;11.07;57.77;99547.88;4945755;28;100976;-68
2020/12/11 08:29:03;;;;;;;23.13;16.98;;;;;;;11.04;57.71;99548.91;4931146;28;98322;-68
2020/12/11 08:31:31;;;;;;;25.17;16.90;;;;;;;11.00;57.98;99553.47;4947423;28;96778;-65
2020/12/11 08:34:05;;;;;;;27.52;17.35;;;;;;;10.81;58.70;99547.72;4952696;28;98713;-67
2020/12/11 08:36:33;;;;;;;27.27;17.83;;;;;;;10.68;59.00;99541.59;4949706;28;98371;-67
2020/12/11 08:39:19;;;;;;;27.52;18.30;;;;;;;10.30;60.17;99544.78;4949188;28;97846;-68
2020/12/11 08:42:06;;;;;;;25.02;17.90;;;;;;;10.02;61.91;99545.53;4948305;28;96607;-68
2020/12/11 08:47:30;;;;;;;22.63;15.88;;;;;;;9.41;64.20;99544.69;4934527;28;98738;-68
2020/12/11 08:50:13;;;;;;;19.70;15.02;;;;;;;9.54;64.01;99549.22;4951133;28;97054;-67
2020/12/11 08:52:40;;;;;;;26.17;16.80;;;;;;;9.53;63.83;99555.31;4952420;28;97085;-66
2020/12/11 08:55:06;;;;;;;24.02;16.98;;;;;;;9.48;63.68;99557.34;4949593;28;98396;-65
2020/12/11 08:57:33;;;;;;;24.92;16.85;;;;;;;9.61;63.81;99560.94;4949348;28;99063;-68
2020/12/11 08:59:59;;;;;;;29.85;17.65;;;;;;;9.56;64.23;99563.81;4945177;28;96668;-68
2020/12/11 09:02:26;;;;;;;24.65;17.13;;;;;;;9.26;64.79;99566.34;4946193;28;97859;-68
2020/12/11 09:04:53;;;;;;;24.35;18.15;;;;;;;9.36;64.97;99567.53;4944471;28;99125;-68
2020/12/11 09:07:34;;;;;;;25.77;17.60;;;;;;;9.38;64.36;99562.25;4947772;28;98794;-68
2020/12/11 09:10:01;;;;;;;27.45;17.65;;;;;;;9.45;64.10;99567.00;4944022;28;98266;-68
2020/12/11 09:12:27;;;;;;;26.55;18.60;;;;;;;9.50;64.73;99560.72;4946692;28;96844;-68
2020/12/11 09:14:53;;;;;;;26.15;18.58;;;;;;;9.62;63.83;99557.41;4946623;28;98597;-68
2020/12/11 09:17:20;;;;;;;29.15;19.17;;;;;;;9.30;65.17;99559.22;4946755;28;98638;-68
2020/12/11 09:19:46;;;;;;;24.88;18.17;;;;;;;9.15;65.60;99561.75;4946791;28;97177;-68
2020/12/11 09:22:13;;;;;;;25.73;17.38;;;;;;;9.16;65.70;99562.56;4947289;28;96624;-68
2020/12/11 09:24:39;;;;;;;22.05;16.73;;;;;;;9.32;66.09;99572.97;4947580;28;98523;-68
2020/12/11 09:27:07;;;;;;;24.95;17.48;;;;;;;9.50;64.96;99563.31;4947628;28;99127;-68
2020/12/11 09:29:37;;;;;;;24.42;16.63;;;;;;;9.56;65.63;99569.00;4947008;28;97046;-67
2020/12/11 09:32:05;;;;;;;28.33;18.73;;;;;;;9.52;65.36;99574.47;4946363;28;97046;-67
2020/12/11 09:34:34;;;;;;;27.35;17.65;;;;;;;9.62;64.93;99573.84;4946761;28;101389;-68
2020/12/11 09:37:02;;;;;;;26.77;17.15;;;;;;;9.61;65.71;99571.34;4945867;28;98631;-68
2020/12/11 09:39:29;;;;;;;28.55;18.50;;;;;;;9.66;65.43;99569.34;4946008;28;97114;-68
2020/12/11 09:42:04;;;;;;;28.67;17.30;;;;;;;9.57;65.40;99562.88;4946417;28;97703;-68
2020/12/11 09:53:04;;;;;;;21.63;16.48;;;;;;;9.74;65.18;99561.91;4947373;28;98010;-68
2020/12/11 09:55:09;;;;;;;23.75;16.75;;;;;;;9.75;64.77;99554.94;4938146;28;98696;-68
2020/12/11 09:57:36;;;;;;;25.63;17.30;;;;;;;9.85;64.89;99553.47;4946836;28;98216;-68
2020/12/11 10:00:04;;;;;;;23.58;17.27;;;;;;;9.73;66.01;99557.63;4913636;28;98963;-68
2020/12/11 10:05:09;;;;;;;27.60;17.52;;;;;;;9.84;65.61;99550.03;4945997;28;100625;-68
2020/12/11 10:07:37;;;;;;;22.60;16.85;;;;;;;9.98;64.92;99549.25;4947161;28;98416;-68
2020/12/11 10:10:03;;;;;;;26.85;17.42;;;;;;;9.98;64.52;99547.47;4949729;28;96799;-68
2020/12/11 10:12:30;;;;;;;22.65;17.60;;;;;;;9.92;65.37;99547.84;4948740;28;98453;-68
2020/12/11 10:15:00;;;;;;;25.13;17.55;;;;;;;10.05;65.31;99547.13;4950496;28;99035;-68
2020/12/11 10:17:26;;;;;;;22.00;17.92;;;;;;;9.98;65.54;99547.47;4949776;28;98432;-68
2020/12/11 10:19:53;;;;;;;31.08;19.67;;;;;;;9.90;65.68;99539.28;4950451;28;97565;-68
2020/12/11 10:22:19;;;;;;;26.17;18.20;;;;;;;10.05;65.95;99537.53;4950139;28;96679;-67
2020/12/11 10:24:46;;;;;;;27.17;19.60;;;;;;;10.22;65.25;99545.19;4948651;28;98616;-68
2020/12/11 10:27:13;;;;;;;23.92;18.85;;;;;;;10.23;64.92;99541.69;4949723;28;99544;-68
2020/12/11 10:29:40;;;;;;;30.88;20.50;;;;;;;10.16;64.91;99536.91;4949619;28;97709;-67
2020/12/11 10:32:06;;;;;;;28.38;21.33;;;;;;;10.20;65.38;99530.59;4949107;28;97752;-64
2020/12/11 10:34:35;;;;;;;33.03;24.75;;;;;;;10.20;65.20;99526.22;4949262;28;100322;-65
2020/12/11 10:37:06;;;;;;;30.48;23.42;;;;;;;10.32;64.69;99522.06;4948690;28;100913;-68
2020/12/11 10:39:33;;;;;;;36.22;24.90;;;;;;;10.33;64.77;99526.34;4949025;28;97123;-68
2020/12/11 10:42:01;;;;;;;40.45;27.90;;;;;;;10.37;64.85;99527.00;4948151;28;97818;-70
2020/12/11 10:44:28;;;;;;;38.83;27.48;;;;;;;10.34;64.32;99527.19;4948095;28;98627;-69
2020/12/11 10:46:54;;;;;;;40.92;29.25;;;;;;;10.11;65.52;99531.13;4948824;28;98401;-77
2020/12/11 10:49:21;;;;;;;39.40;27.42;;;;;;;10.03;65.47;99522.94;4948772;28;96711;-77
2020/12/11 10:51:49;;;;;;;39.80;27.90;;;;;;;9.95;65.71;99521.63;4949301;28;97397;-77
2020/12/11 10:54:17;;;;;;;42.88;29.40;;;;;;;10.02;65.93;99519.50;4948783;28;98413;-78
2020/12/11 10:56:47;;;;;;;40.33;29.48;;;;;;;10.05;66.00;99523.69;4948873;28;98746;-78
2020/12/11 10:59:14;;;;;;;49.60;32.08;;;;;;;9.83;65.97;99527.56;4949123;28;100615;-77
2020/12/11 11:01:41;;;;;;;48.58;31.33;;;;;;;9.91;66.08;99521.91;4949257;28;99588;-78
2020/12/11 11:04:08;;;;;;;55.75;32.97;;;;;;;9.92;66.15;99513.16;4947112;28;99114;-77
2020/12/11 11:06:40;;;;;;;46.90;32.88;;;;;;;9.90;66.79;99508.03;4948225;28;98356;-76
2020/12/11 11:11:46;;;;;;;41.28;30.98;;;;;;;9.80;66.46;99493.91;4948879;28;96789;-77
2020/12/11 11:19:36;;;;;;;48.03;32.00;;;;;;;9.98;66.05;99487.59;4948297;28;98025;-77
2020/12/11 11:29:59;;;;;;;46.25;33.05;;;;;;;9.91;66.69;99483.69;4947950;28;97177;-78
2020/12/11 11:32:26;;;;;;;49.83;33.78;;;;;;;9.96;66.97;99480.81;4949541;28;99134;-78
2020/12/11 11:34:52;;;;;;;43.20;31.88;;;;;;;9.71;67.05;99476.22;4947917;28;98679;-77
2020/12/11 11:37:21;;;;;;;45.58;31.65;;;;;;;9.59;67.86;99472.56;4949412;28;99133;-77
2020/12/11 11:39:49;;;;;;;46.00;32.55;;;;;;;9.68;67.81;99460.78;4948144;28;98281;-78
2020/12/11 11:42:16;;;;;;;45.72;31.65;;;;;;;9.89;67.73;99466.47;4948014;28;99487;-77
2020/12/11 11:44:53;;;;;;;45.97;29.70;;;;;;;9.72;67.51;99457.06;4948256;28;97353;-77
2020/12/11 11:47:20;;;;;;;40.20;30.20;;;;;;;9.81;67.79;99459.13;4947253;28;100539;-77
2020/12/11 11:54:59;;;;;;;51.85;33.65;;;;;;;10.04;66.62;99452.53;4946092;28;98632;-77
2020/12/11 11:57:26;;;;;;;47.60;32.50;;;;;;;10.15;66.37;99454.50;4947765;28;98440;-78
2020/12/11 11:59:52;;;;;;;46.25;31.00;;;;;;;9.92;66.81;99448.91;4948215;28;99318;-77
2020/12/11 12:02:19;;;;;;;46.92;32.58;;;;;;;10.04;66.66;99446.50;4946625;28;97037;-78
2020/12/11 12:04:45;;;;;;;51.95;35.70;;;;;;;10.07;66.65;99451.53;4947416;28;99236;-77